Time;durP1;ratioP1;P1;durP2;ratioP2;P2;SDS_P1;SDS_P2;PMS_P1;PMS_P2;Temp;Humidity;BMP_temperature;BMP_pressure;BME280_temperature;BME280_humidity;BME280_pressure;Samples;Min_cycle;Max_cycle;Signal;HPM_P1;HPM_P2
2024/03/01 00:00:24;;;;;;;50.38;21.55;;;;;;;;;;5030795;28;20053;-87
2024/03/01 00:02:51;;;;;;;51.55;21.65;;;;;;;;;;5018700;28;20054;-86
2024/03/01 00:05:19;;;;;;;55.35;20.75;;;;;;;;;;5012172;28;20045;-86
2024/03/01 00:07:46;;;;;;;48.35;20.05;;;;;;;;;;5020436;28;20447;-86
2024/03/01 00:10:13;;;;;;;42.55;18.77;;;;;;;;;;5010097;28;20045;-86
2024/03/01 00:12:40;;;;;;;45.03;20.52;;;;;;;;;;5029499;28;20074;-86
2024/03/01 00:15:08;;;;;;;48.55;20.38;;;;;;;;;;5029176;28;20050;-85
2024/03/01 00:17:35;;;;;;;52.05;21.80;;;;;;;;;;5029157;28;20049;-86
2024/03/01 00:20:02;;;;;;;52.13;21.55;;;;;;;;;;5006794;28;20050;-85
2024/03/01 00:22:30;;;;;;;51.90;21.58;;;;;;;;;;5012363;28;20061;-86
2024/03/01 00:24:57;;;;;;;50.00;21.40;;;;;;;;;;5029787;28;20076;-85
2024/03/01 00:27:24;;;;;;;50.55;21.52;;;;;;;;;;5016790;28;20424;-86
2024/03/01 00:29:52;;;;;;;49.10;21.23;;;;;;;;;;5008514;28;20491;-86
2024/03/01 00:32:19;;;;;;;51.47;22.10;;;;;;;;;;5003449;28;20049;-86
2024/03/01 00:34:46;;;;;;;51.17;20.95;;;;;;;;;;5008944;28;20062;-86
2024/03/01 00:37:14;;;;;;;59.83;21.08;;;;;;;;;;5010144;28;20100;-84
2024/03/01 00:39:41;;;;;;;49.55;21.38;;;;;;;;;;5021567;28;20050;-86
2024/03/01 00:42:08;;;;;;;49.92;20.40;;;;;;;;;;5014342;28;20046;-86
2024/03/01 00:44:35;;;;;;;50.97;21.67;;;;;;;;;;5029833;28;20042;-86
2024/03/01 00:47:02;;;;;;;51.60;20.52;;;;;;;;;;5028756;28;20076;-86
2024/03/01 00:49:30;;;;;;;49.50;21.35;;;;;;;;;;5004977;28;20047;-85
2024/03/01 00:51:57;;;;;;;49.15;20.02;;;;;;;;;;5029378;28;20072;-86
2024/03/01 00:54:26;;;;;;;54.63;21.90;;;;;;;;;;5012865;28;20503;-86
2024/03/01 00:56:54;;;;;;;55.45;21.83;;;;;;;;;;5012861;28;20054;-85
2024/03/01 00:59:23;;;;;;;46.53;19.20;;;;;;;;;;5005959;28;20104;-86
2024/03/01 01:01:52;;;;;;;44.85;19.85;;;;;;;;;;5034064;22;20605;-83
2024/03/01 01:04:19;;;;;;;48.92;20.00;;;;;;;;;;5043445;28;20046;-83
2024/03/01 01:06:47;;;;;;;41.28;18.23;;;;;;;;;;5041829;28;20049;-83
2024/03/01 01:09:14;;;;;;;42.20;18.45;;;;;;;;;;5041806;28;20049;-84
2024/03/01 01:11:42;;;;;;;40.72;17.77;;;;;;;;;;5042922;28;20050;-83
2024/03/01 01:14:09;;;;;;;47.08;19.48;;;;;;;;;;5042102;28;20096;-83
2024/03/01 01:16:36;;;;;;;46.88;18.80;;;;;;;;;;5034973;28;20525;-84
2024/03/01 01:19:04;;;;;;;41.42;17.90;;;;;;;;;;5040403;28;20053;-83
2024/03/01 01:21:32;;;;;;;38.28;17.50;;;;;;;;;;5035209;28;20460;-83
2024/03/01 01:24:00;;;;;;;42.17;18.25;;;;;;;;;;5041403;28;20053;-83
2024/03/01 01:26:27;;;;;;;37.88;17.17;;;;;;;;;;5044739;28;20041;-83
2024/03/01 01:28:55;;;;;;;39.28;17.83;;;;;;;;;;5048342;28;20049;-83
2024/03/01 01:31:23;;;;;;;42.13;17.55;;;;;;;;;;5042698;28;20064;-83
2024/03/01 01:33:52;;;;;;;44.10;17.90;;;;;;;;;;5042088;28;20410;-84
2024/03/01 01:36:20;;;;;;;35.95;17.25;;;;;;;;;;5041913;28;20415;-84
2024/03/01 01:38:47;;;;;;;39.90;18.08;;;;;;;;;;5042113;28;20057;-84
2024/03/01 01:41:14;;;;;;;40.10;17.88;;;;;;;;;;5050213;28;20045;-83
2024/03/01 01:43:43;;;;;;;43.92;19.02;;;;;;;;;;5037265;28;20602;-81
2024/03/01 01:46:15;;;;;;;39.17;18.15;;;;;;;;;;5037751;28;20049;-83
2024/03/01 01:48:45;;;;;;;39.00;17.08;;;;;;;;;;5033607;28;20084;-84
2024/03/01 01:51:14;;;;;;;41.17;17.90;;;;;;;;;;5038617;28;20097;-83
2024/03/01 01:53:42;;;;;;;46.08;18.15;;;;;;;;;;5025135;28;20099;-84
2024/03/01 01:56:10;;;;;;;38.92;17.85;;;;;;;;;;5054112;28;20502;-84
2024/03/01 01:58:39;;;;;;;38.67;18.05;;;;;;;;;;5051962;28;20046;-84
2024/03/01 02:01:15;;;;;;;47.22;18.73;;;;;;;;;;5044574;28;20111;-83
2024/03/01 02:03:42;;;;;;;51.75;19.50;;;;;;;;;;5053488;28;20183;-83
2024/03/01 02:06:10;;;;;;;43.53;17.88;;;;;;;;;;5044570;28;20049;-83
2024/03/01 02:08:38;;;;;;;51.92;19.65;;;;;;;;;;5037470;28;20057;-83
2024/03/01 02:11:07;;;;;;;40.35;18.02;;;;;;;;;;5038397;28;20103;-82
2024/03/01 02:13:34;;;;;;;41.63;18.08;;;;;;;;;;5037324;28;20048;-83
2024/03/01 02:16:01;;;;;;;43.75;17.92;;;;;;;;;;5039454;22;20041;-84
2024/03/01 02:18:29;;;;;;;42.83;18.50;;;;;;;;;;5012100;28;20046;-84
2024/03/01 02:21:00;;;;;;;55.45;19.63;;;;;;;;;;5015240;28;20499;-84
2024/03/01 02:23:28;;;;;;;39.38;17.65;;;;;;;;;;5016994;28;20050;-84
2024/03/01 02:25:55;;;;;;;47.35;19.15;;;;;;;;;;5013127;28;20046;-84
2024/03/01 02:28:23;;;;;;;51.78;19.88;;;;;;;;;;5012802;28;20109;-84
2024/03/01 02:30:53;;;;;;;49.03;19.35;;;;;;;;;;5022351;28;20073;-81
2024/03/01 02:33:21;;;;;;;47.70;18.13;;;;;;;;;;5019389;28;20050;-84
2024/03/01 02:35:48;;;;;;;41.42;17.42;;;;;;;;;;5010909;28;20053;-84
2024/03/01 02:38:16;;;;;;;38.22;18.15;;;;;;;;;;5018006;28;20049;-84
2024/03/01 02:40:44;;;;;;;41.30;17.50;;;;;;;;;;5000581;28;20054;-84
2024/03/01 02:43:11;;;;;;;38.92;17.80;;;;;;;;;;5032101;28;20076;-85
2024/03/01 02:45:38;;;;;;;39.40;17.23;;;;;;;;;;5030544;28;20074;-86
2024/03/01 02:48:05;;;;;;;48.90;19.17;;;;;;;;;;5025296;28;20053;-85
2024/03/01 02:50:33;;;;;;;42.10;18.42;;;;;;;;;;5032255;28;20056;-85
2024/03/01 02:53:00;;;;;;;48.50;20.35;;;;;;;;;;5033039;28;20046;-85
2024/03/01 02:55:27;;;;;;;43.38;18.73;;;;;;;;;;5031610;28;20057;-85
2024/03/01 02:57:56;;;;;;;44.42;18.70;;;;;;;;;;5027492;28;20046;-85
2024/03/01 03:00:24;;;;;;;42.60;18.42;;;;;;;;;;5033596;28;20050;-85
2024/03/01 03:02:52;;;;;;;48.80;18.58;;;;;;;;;;5033741;28;20052;-85
2024/03/01 03:05:19;;;;;;;36.35;16.83;;;;;;;;;;5033846;28;20521;-86
2024/03/01 03:07:50;;;;;;;48.60;19.25;;;;;;;;;;5033445;28;20109;-85
2024/03/01 03:10:18;;;;;;;42.85;17.73;;;;;;;;;;5032289;28;20056;-85
2024/03/01 03:12:45;;;;;;;45.80;18.70;;;;;;;;;;5029483;28;20109;-85
2024/03/01 03:15:13;;;;;;;40.00;17.67;;;;;;;;;;5024434;28;20051;-85
2024/03/01 03:17:41;;;;;;;36.70;17.67;;;;;;;;;;5020336;28;20080;-84
2024/03/01 03:20:12;;;;;;;47.00;18.17;;;;;;;;;;5013896;28;20050;-85
2024/03/01 03:22:40;;;;;;;41.00;17.05;;;;;;;;;;5023406;28;20712;-85
2024/03/01 03:25:08;;;;;;;44.25;18.67;;;;;;;;;;5025475;28;20081;-83
2024/03/01 03:27:36;;;;;;;44.33;19.10;;;;;;;;;;5020900;28;20054;-86
2024/03/01 03:30:06;;;;;;;45.90;18.48;;;;;;;;;;5016680;28;20137;-84
2024/03/01 03:32:34;;;;;;;46.72;18.85;;;;;;;;;;5017221;28;20055;-87
2024/03/01 03:35:01;;;;;;;40.30;17.20;;;;;;;;;;5022094;28;20129;-86
2024/03/01 03:37:28;;;;;;;51.35;18.77;;;;;;;;;;5020453;28;20057;-87
2024/03/01 03:39:55;;;;;;;50.75;18.83;;;;;;;;;;5015382;28;20055;-86
2024/03/01 03:42:23;;;;;;;41.80;17.92;;;;;;;;;;5011406;28;20090;-87
2024/03/01 03:44:50;;;;;;;41.80;17.73;;;;;;;;;;5021010;28;20054;-87
2024/03/01 03:47:17;;;;;;;43.33;18.90;;;;;;;;;;5021755;28;20465;-86
2024/03/01 03:49:47;;;;;;;51.85;18.73;;;;;;;;;;5022902;28;20049;-86
2024/03/01 03:52:14;;;;;;;47.63;20.38;;;;;;;;;;5013847;28;20133;-87
2024/03/01 03:54:42;;;;;;;59.13;22.42;;;;;;;;;;5012517;28;20403;-87
2024/03/01 03:57:09;;;;;;;44.63;19.58;;;;;;;;;;5012696;28;20081;-86
2024/03/01 03:59:37;;;;;;;46.45;19.33;;;;;;;;;;5016849;28;20507;-87
2024/03/01 04:02:05;;;;;;;45.50;19.52;;;;;;;;;;5011390;28;20054;-87
2024/03/01 04:04:32;;;;;;;43.97;19.35;;;;;;;;;;5018018;28;20073;-87
2024/03/01 04:07:00;;;;;;;51.00;19.67;;;;;;;;;;5020945;28;20061;-84
2024/03/01 04:09:30;;;;;;;43.13;19.17;;;;;;;;;;5022188;28;20149;-84
2024/03/01 04:11:59;;;;;;;44.92;20.58;;;;;;;;;;5014153;28;20050;-87
2024/03/01 04:14:26;;;;;;;41.65;18.80;;;;;;;;;;5014456;28;20057;-87
2024/03/01 04:16:53;;;;;;;54.53;21.05;;;;;;;;;;5019072;28;20053;-87
2024/03/01 04:19:20;;;;;;;46.85;19.20;;;;;;;;;;5017099;28;20050;-87
2024/03/01 04:21:48;;;;;;;41.90;19.52;;;;;;;;;;5012087;28;20050;-87
2024/03/01 04:24:16;;;;;;;45.65;19.35;;;;;;;;;;5019797;28;20053;-86
2024/03/01 04:26:43;;;;;;;37.60;17.85;;;;;;;;;;5007976;28;20053;-83
2024/03/01 04:29:10;;;;;;;37.90;17.45;;;;;;;;;;5016616;28;20047;-87
2024/03/01 04:31:38;;;;;;;45.78;18.85;;;;;;;;;;5017698;28;20111;-87
2024/03/01 04:34:06;;;;;;;31.80;16.58;;;;;;;;;;5018724;28;20053;-87
2024/03/01 04:36:34;;;;;;;40.78;17.30;;;;;;;;;;5010553;28;20050;-85
2024/03/01 04:39:05;;;;;;;33.15;15.73;;;;;;;;;;5018491;28;20046;-87
2024/03/01 04:41:33;;;;;;;38.78;15.93;;;;;;;;;;5009769;28;20051;-84
2024/03/01 04:44:00;;;;;;;39.92;18.40;;;;;;;;;;5024354;22;20049;-86
2024/03/01 04:46:27;;;;;;;38.70;18.15;;;;;;;;;;5014237;28;20056;-84
2024/03/01 04:48:54;;;;;;;39.97;18.98;;;;;;;;;;5013434;28;20053;-86
2024/03/01 04:51:24;;;;;;;42.42;17.77;;;;;;;;;;5013525;28;20049;-84
2024/03/01 04:53:52;;;;;;;39.70;18.80;;;;;;;;;;5013702;28;20057;-85
2024/03/01 04:56:19;;;;;;;44.50;18.65;;;;;;;;;;5013546;28;20054;-86
2024/03/01 04:58:46;;;;;;;41.28;17.77;;;;;;;;;;5014608;28;20050;-86
2024/03/01 05:01:16;;;;;;;37.20;16.80;;;;;;;;;;5013829;28;20560;-86
2024/03/01 05:03:44;;;;;;;43.75;17.35;;;;;;;;;;5013598;28;20084;-84
2024/03/01 05:06:12;;;;;;;32.42;16.13;;;;;;;;;;5010221;28;20082;-86
2024/03/01 05:08:39;;;;;;;40.40;16.38;;;;;;;;;;5028996;28;20096;-85
2024/03/01 05:11:06;;;;;;;40.08;17.92;;;;;;;;;;5013177;28;20104;-86
2024/03/01 05:13:34;;;;;;;36.85;16.52;;;;;;;;;;5014120;28;20431;-86
2024/03/01 05:16:02;;;;;;;38.80;18.80;;;;;;;;;;5012683;28;20125;-86
2024/03/01 05:18:30;;;;;;;39.28;18.60;;;;;;;;;;5012580;28;20128;-85
2024/03/01 05:20:57;;;;;;;37.13;17.02;;;;;;;;;;5012174;28;20602;-84
2024/03/01 05:23:24;;;;;;;37.63;16.70;;;;;;;;;;5012068;28;20041;-85
2024/03/01 05:25:52;;;;;;;44.55;17.27;;;;;;;;;;5013571;28;20046;-84
2024/03/01 05:28:19;;;;;;;36.45;17.33;;;;;;;;;;5012712;28;20085;-85
2024/03/01 05:30:47;;;;;;;35.38;16.83;;;;;;;;;;5012915;28;20050;-85
2024/03/01 05:33:19;;;;;;;44.78;18.95;;;;;;;;;;5014452;28;20057;-85
2024/03/01 05:35:47;;;;;;;48.00;21.95;;;;;;;;;;5016899;28;20046;-85
2024/03/01 05:38:15;;;;;;;56.88;27.00;;;;;;;;;;5016835;28;20104;-85
2024/03/01 05:40:42;;;;;;;47.08;22.25;;;;;;;;;;5009167;28;20461;-86
2024/03/01 05:43:24;;;;;;;40.35;17.63;;;;;;;;;;5016641;28;20049;-86
2024/03/01 05:45:51;;;;;;;38.15;18.55;;;;;;;;;;5016852;28;20057;-86
2024/03/01 05:48:19;;;;;;;50.22;19.05;;;;;;;;;;5017790;28;20453;-84
2024/03/01 05:50:47;;;;;;;48.20;18.65;;;;;;;;;;5016394;28;20554;-84
2024/03/01 05:53:14;;;;;;;44.58;20.45;;;;;;;;;;5017986;28;20505;-85
2024/03/01 05:55:43;;;;;;;48.20;22.38;;;;;;;;;;5009321;28;20052;-85
2024/03/01 05:58:12;;;;;;;47.67;24.02;;;;;;;;;;5016299;28;20430;-84
2024/03/01 06:00:40;;;;;;;55.17;21.25;;;;;;;;;;5015848;28;20132;-85
2024/03/01 06:03:08;;;;;;;38.40;17.00;;;;;;;;;;5015785;28;20069;-86
2024/03/01 06:05:36;;;;;;;43.00;18.77;;;;;;;;;;5015715;28;20069;-85
2024/03/01 06:08:03;;;;;;;46.22;18.30;;;;;;;;;;5017536;28;20050;-87
2024/03/01 06:10:31;;;;;;;48.75;17.08;;;;;;;;;;5016495;28;20478;-84
2024/03/01 06:12:59;;;;;;;48.53;18.80;;;;;;;;;;5017341;28;20056;-85
2024/03/01 06:15:27;;;;;;;44.55;17.67;;;;;;;;;;5015705;28;20049;-86
2024/03/01 06:17:54;;;;;;;44.15;18.52;;;;;;;;;;5015668;28;20490;-86
2024/03/01 06:20:21;;;;;;;55.78;22.35;;;;;;;;;;5015578;28;20058;-86
2024/03/01 06:22:48;;;;;;;48.95;19.60;;;;;;;;;;5016979;28;20050;-86
2024/03/01 06:25:16;;;;;;;46.13;20.08;;;;;;;;;;5016098;28;20046;-85
2024/03/01 06:27:43;;;;;;;47.05;18.27;;;;;;;;;;5007544;28;20498;-85
2024/03/01 06:30:10;;;;;;;41.88;18.95;;;;;;;;;;5015499;28;20100;-86
2024/03/01 06:32:37;;;;;;;49.50;19.17;;;;;;;;;;5015618;28;20050;-86
2024/03/01 06:35:05;;;;;;;41.05;17.83;;;;;;;;;;5015476;28;20136;-84
2024/03/01 06:37:32;;;;;;;55.78;23.67;;;;;;;;;;5015535;28;20139;-85
2024/03/01 06:40:00;;;;;;;41.72;20.15;;;;;;;;;;5015722;28;20050;-84
2024/03/01 06:42:27;;;;;;;45.65;19.98;;;;;;;;;;5015636;28;20078;-86
2024/03/01 06:44:55;;;;;;;47.40;20.85;;;;;;;;;;5014069;28;20462;-86
2024/03/01 06:47:22;;;;;;;46.17;18.67;;;;;;;;;;5015668;28;20045;-86
2024/03/01 06:49:49;;;;;;;44.45;20.95;;;;;;;;;;5015450;28;20054;-86
2024/03/01 06:52:16;;;;;;;51.42;19.75;;;;;;;;;;5015526;28;20046;-85
2024/03/01 06:54:47;;;;;;;49.03;20.23;;;;;;;;;;5015487;28;20050;-86
2024/03/01 06:57:14;;;;;;;46.78;19.85;;;;;;;;;;5015112;28;20049;-85
2024/03/01 06:59:41;;;;;;;43.38;20.38;;;;;;;;;;5006971;28;20481;-86
2024/03/01 07:02:09;;;;;;;52.80;22.73;;;;;;;;;;5016388;28;20465;-85
2024/03/01 07:04:36;;;;;;;50.20;22.25;;;;;;;;;;5014428;28;20085;-86
2024/03/01 07:07:04;;;;;;;46.08;21.92;;;;;;;;;;5014483;28;20418;-86
2024/03/01 07:09:34;;;;;;;46.80;22.42;;;;;;;;;;5014555;28;20077;-85
2024/03/01 07:12:02;;;;;;;56.70;24.15;;;;;;;;;;5014881;28;20046;-87
2024/03/01 07:14:29;;;;;;;62.25;24.30;;;;;;;;;;5014587;28;20129;-86
2024/03/01 07:16:57;;;;;;;68.93;26.10;;;;;;;;;;5015454;28;20050;-87
2024/03/01 07:19:24;;;;;;;59.70;25.02;;;;;;;;;;5015493;28;20054;-87
2024/03/01 07:21:51;;;;;;;68.10;26.30;;;;;;;;;;5014841;28;20487;-86
2024/03/01 07:24:19;;;;;;;59.85;27.00;;;;;;;;;;5014688;28;20077;-85
2024/03/01 07:26:46;;;;;;;60.47;25.10;;;;;;;;;;5014812;28;20142;-87
2024/03/01 07:29:13;;;;;;;66.82;25.80;;;;;;;;;;5014987;28;20134;-86
2024/03/01 07:31:40;;;;;;;50.35;24.88;;;;;;;;;;5014495;28;20057;-87
2024/03/01 07:34:08;;;;;;;62.55;27.45;;;;;;;;;;5014371;28;20070;-85
2024/03/01 07:36:35;;;;;;;72.82;29.77;;;;;;;;;;5014302;28;20045;-86
2024/03/01 07:39:03;;;;;;;56.25;25.42;;;;;;;;;;5015597;28;20060;-86
2024/03/01 07:41:30;;;;;;;65.53;28.02;;;;;;;;;;5013631;28;20046;-86
2024/03/01 07:43:58;;;;;;;65.63;28.30;;;;;;;;;;5013415;28;20057;-86
2024/03/01 07:46:25;;;;;;;59.33;26.42;;;;;;;;;;5013533;28;20045;-86
2024/03/01 07:48:52;;;;;;;64.85;26.27;;;;;;;;;;5016265;28;20049;-87
2024/03/01 07:51:19;;;;;;;53.00;23.10;;;;;;;;;;5014248;28;20054;-86
2024/03/01 07:53:47;;;;;;;53.72;23.55;;;;;;;;;;5024117;28;20043;-88
2024/03/01 07:56:15;;;;;;;54.60;25.20;;;;;;;;;;5017034;28;20072;-88
2024/03/01 07:58:42;;;;;;;52.47;24.02;;;;;;;;;;5007448;28;20429;-87
2024/03/01 08:01:10;;;;;;;53.08;24.50;;;;;;;;;;5014229;28;20050;-86
2024/03/01 08:03:37;;;;;;;64.60;26.02;;;;;;;;;;5016125;28;20100;-86
2024/03/01 08:06:04;;;;;;;79.43;32.72;;;;;;;;;;5014512;28;20104;-87
2024/03/01 08:08:38;;;;;;;88.72;34.05;;;;;;;;;;5014212;28;20128;-86
2024/03/01 08:11:09;;;;;;;75.95;32.80;;;;;;;;;;5014863;28;20085;-86
2024/03/01 08:13:37;;;;;;;68.85;30.27;;;;;;;;;;5016043;28;20108;-86
2024/03/01 08:16:08;;;;;;;59.28;28.52;;;;;;;;;;5014504;28;20519;-87
2024/03/01 08:18:38;;;;;;;57.40;27.42;;;;;;;;;;5015411;28;20553;-87
2024/03/01 08:21:08;;;;;;;47.10;24.55;;;;;;;;;;5014599;28;20050;-87
2024/03/01 08:23:39;;;;;;;43.42;22.95;;;;;;;;;;5014296;28;20085;-86
2024/03/01 08:26:13;;;;;;;41.33;21.45;;;;;;;;;;5014573;28;20050;-86
2024/03/01 08:28:44;;;;;;;42.05;22.63;;;;;;;;;;5014787;28;20129;-86
2024/03/01 08:31:20;;;;;;;38.95;22.38;;;;;;;;;;5015045;28;20054;-85
2024/03/01 08:33:48;;;;;;;40.58;22.58;;;;;;;;;;5004660;28;20518;-86
2024/03/01 08:36:15;;;;;;;34.80;20.83;;;;;;;;;;5019357;28;20120;-87
2024/03/01 08:38:43;;;;;;;39.47;20.65;;;;;;;;;;5007981;28;20050;-86
2024/03/01 08:41:11;;;;;;;35.83;20.48;;;;;;;;;;5015563;28;20141;-87
2024/03/01 08:43:40;;;;;;;35.28;21.65;;;;;;;;;;5014780;28;20058;-87
2024/03/01 08:46:20;;;;;;;37.03;20.85;;;;;;;;;;5015419;28;20092;-84
2024/03/01 08:48:48;;;;;;;36.05;20.40;;;;;;;;;;5008753;28;20053;-85
2024/03/01 08:51:18;;;;;;;37.63;21.45;;;;;;;;;;5015733;28;20458;-86
2024/03/01 08:53:48;;;;;;;36.75;20.45;;;;;;;;;;5024699;28;20050;-86
2024/03/01 08:56:20;;;;;;;36.83;20.30;;;;;;;;;;5016142;28;20050;-86
2024/03/01 08:58:48;;;;;;;36.70;19.75;;;;;;;;;;5024252;28;20061;-86
2024/03/01 09:01:26;;;;;;;38.53;20.17;;;;;;;;;;5018026;28;20100;-87
2024/03/01 09:03:53;;;;;;;34.10;19.58;;;;;;;;;;5010387;28;20045;-86
2024/03/01 09:06:21;;;;;;;31.42;19.60;;;;;;;;;;5017273;28;20112;-87
2024/03/01 09:08:48;;;;;;;34.60;19.70;;;;;;;;;;5018464;28;20041;-87
2024/03/01 09:11:19;;;;;;;32.03;19.45;;;;;;;;;;5016981;28;20045;-87
2024/03/01 09:13:46;;;;;;;30.02;17.70;;;;;;;;;;5007942;28;20050;-85
2024/03/01 09:16:18;;;;;;;30.90;18.50;;;;;;;;;;5014206;28;20050;-84
2024/03/01 09:18:49;;;;;;;34.77;18.93;;;;;;;;;;5006374;28;20060;-86
2024/03/01 09:21:34;;;;;;;32.78;19.30;;;;;;;;;;5015153;28;20104;-86
2024/03/01 09:24:01;;;;;;;36.08;19.60;;;;;;;;;;5024011;28;20053;-86
2024/03/01 09:26:30;;;;;;;32.50;18.75;;;;;;;;;;5013166;28;20108;-86
2024/03/01 09:29:04;;;;;;;40.50;20.48;;;;;;;;;;5013414;28;20049;-86
2024/03/01 09:31:32;;;;;;;32.80;18.85;;;;;;;;;;5013041;28;20050;-86
2024/03/01 09:34:13;;;;;;;32.80;18.77;;;;;;;;;;5013156;28;20487;-85
2024/03/01 09:36:40;;;;;;;33.28;18.73;;;;;;;;;;5013685;28;20057;-84
2024/03/01 09:39:08;;;;;;;25.98;16.98;;;;;;;;;;5013251;28;20054;-86
2024/03/01 09:41:51;;;;;;;31.23;19.13;;;;;;;;;;5013503;28;20112;-87
2024/03/01 09:44:40;;;;;;;24.48;16.77;;;;;;;;;;5012982;28;20054;-85
2024/03/01 09:47:21;;;;;;;30.88;18.15;;;;;;;;;;5014143;28;20084;-86
2024/03/01 09:49:58;;;;;;;25.92;16.55;;;;;;;;;;5007047;28;20112;-86
2024/03/01 09:52:33;;;;;;;26.25;16.25;;;;;;;;;;5013814;28;20247;-86
2024/03/01 09:55:07;;;;;;;27.73;16.98;;;;;;;;;;5013280;28;20132;-86
2024/03/01 09:57:43;;;;;;;25.25;15.55;;;;;;;;;;5014608;28;20061;-85
2024/03/01 10:00:18;;;;;;;29.70;15.65;;;;;;;;;;5014528;28;20049;-83
2024/03/01 10:02:45;;;;;;;23.85;15.23;;;;;;;;;;5009933;28;20053;-84
2024/03/01 10:05:38;;;;;;;23.52;15.88;;;;;;;;;;5015394;28;20492;-83
2024/03/01 10:08:17;;;;;;;20.08;13.40;;;;;;;;;;5012655;28;20046;-83
2024/03/01 10:10:44;;;;;;;25.83;15.38;;;;;;;;;;5016752;28;20049;-85
2024/03/01 10:13:14;;;;;;;20.80;14.27;;;;;;;;;;5017033;28;20132;-85
2024/03/01 10:15:52;;;;;;;21.85;14.10;;;;;;;;;;5017405;28;20049;-84
2024/03/01 10:18:26;;;;;;;22.73;14.02;;;;;;;;;;5019147;28;20054;-83
2024/03/01 10:21:06;;;;;;;22.50;13.40;;;;;;;;;;5021974;28;20053;-84
2024/03/01 10:23:36;;;;;;;19.92;13.38;;;;;;;;;;5022495;28;20054;-85
2024/03/01 10:26:07;;;;;;;19.42;13.18;;;;;;;;;;5017363;28;20568;-83
2024/03/01 10:28:34;;;;;;;18.42;12.95;;;;;;;;;;5017326;28;20049;-83
2024/03/01 10:31:16;;;;;;;17.63;12.60;;;;;;;;;;5016495;28;20056;-84
2024/03/01 10:33:57;;;;;;;21.92;14.73;;;;;;;;;;5016657;28;20410;-84
2024/03/01 10:36:54;;;;;;;20.27;13.80;;;;;;;;;;5016904;28;20077;-83
2024/03/01 10:39:25;;;;;;;22.38;14.55;;;;;;;;;;5015925;28;20069;-85
2024/03/01 10:42:14;;;;;;;19.20;13.73;;;;;;;;;;5017609;28;20100;-85
2024/03/01 10:44:41;;;;;;;23.92;14.40;;;;;;;;;;5017427;28;20057;-84
2024/03/01 10:47:21;;;;;;;27.83;14.80;;;;;;;;;;5017918;28;20120;-84
2024/03/01 10:50:00;;;;;;;21.00;14.48;;;;;;;;;;5025588;28;20045;-84
2024/03/01 10:52:36;;;;;;;26.70;14.25;;;;;;;;;;5017962;28;20446;-83
2024/03/01 10:55:10;;;;;;;19.77;13.30;;;;;;;;;;5018089;28;20085;-83
2024/03/01 10:57:37;;;;;;;;;;;;;;;;;;5017414;28;20050;-83
2024/03/01 11:00:06;;;;;;;21.80;14.05;;;;;;;;;;5016812;28;19921;-84
2024/03/01 11:02:40;;;;;;;20.27;13.50;;;;;;;;;;5017155;28;20049;-84
2024/03/01 11:05:07;;;;;;;;;;;;;;;;;;5019379;28;20057;-83
2024/03/01 11:07:59;;;;;;;20.90;14.75;;;;;;;;;;5016755;28;19921;-85
2024/03/01 11:10:33;;;;;;;21.70;14.63;;;;;;;;;;5017707;28;20151;-85
2024/03/01 11:13:00;;;;;;;;;;;;;;;;;;5020393;28;20189;-84
2024/03/01 11:15:28;;;;;;;19.05;13.60;;;;;;;;;;5017954;28;19922;-85
2024/03/01 11:17:58;;;;;;;23.48;14.27;;;;;;;;;;5019045;28;20045;-84
2024/03/01 11:20:37;;;;;;;21.80;13.93;;;;;;;;;;5018670;28;20497;-84
2024/03/01 11:23:14;;;;;;;21.52;12.95;;;;;;;;;;5019905;28;20423;-85
2024/03/01 11:25:48;;;;;;;17.42;12.45;;;;;;;;;;5020319;28;20099;-85
2024/03/01 11:28:23;;;;;;;19.20;13.00;;;;;;;;;;5020474;28;20048;-85
2024/03/01 11:30:54;;;;;;;20.98;13.82;;;;;;;;;;5015912;28;20096;-85
2024/03/01 11:33:23;;;;;;;20.77;13.60;;;;;;;;;;5022413;28;20073;-85
2024/03/01 11:35:56;;;;;;;21.58;14.00;;;;;;;;;;5022371;28;20049;-85
2024/03/01 11:38:34;;;;;;;20.83;14.25;;;;;;;;;;5020351;28;20084;-84
2024/03/01 11:41:10;;;;;;;37.42;23.02;;;;;;;;;;5016768;28;20056;-85
2024/03/01 11:43:58;;;;;;;73.05;46.83;;;;;;;;;;5015888;28;20097;-83
2024/03/01 11:46:28;;;;;;;22.98;15.98;;;;;;;;;;5015634;28;20100;-83
2024/03/01 11:48:55;;;;;;;30.58;21.33;;;;;;;;;;5015360;28;20050;-84
2024/03/01 11:51:42;;;;;;;43.40;28.80;;;;;;;;;;5016019;28;20054;-84
2024/03/01 11:54:25;;;;;;;22.63;14.05;;;;;;;;;;5015004;28;20045;-82
2024/03/01 11:57:12;;;;;;;22.70;16.05;;;;;;;;;;5008718;28;20072;-83
2024/03/01 11:59:39;;;;;;;29.13;20.13;;;;;;;;;;5012417;28;20046;-84
2024/03/01 12:02:25;;;;;;;43.78;33.80;;;;;;;;;;5010939;28;20053;-83
2024/03/01 12:05:06;;;;;;;47.00;36.42;;;;;;;;;;5014235;28;20426;-84
2024/03/01 12:07:37;;;;;;;24.55;17.77;;;;;;;;;;5014908;28;20080;-84
2024/03/01 12:10:18;;;;;;;17.42;13.30;;;;;;;;;;5014964;28;20050;-84
2024/03/01 12:12:47;;;;;;;21.30;13.77;;;;;;;;;;5015539;28;20076;-85
2024/03/01 12:15:20;;;;;;;24.92;16.83;;;;;;;;;;5015185;28;20057;-84
2024/03/01 12:17:51;;;;;;;18.87;12.83;;;;;;;;;;5015994;28;20042;-85
2024/03/01 12:20:18;;;;;;;16.48;11.63;;;;;;;;;;5016323;28;20323;-84
2024/03/01 12:23:06;;;;;;;20.02;13.50;;;;;;;;;;5018617;28;20116;-83
2024/03/01 12:25:36;;;;;;;13.13;8.82;;;;;;;;;;5016654;28;20054;-80
2024/03/01 12:28:16;;;;;;;14.23;10.43;;;;;;;;;;5016669;28;20132;-82
2024/03/01 12:30:48;;;;;;;12.68;9.70;;;;;;;;;;5017641;28;20049;-83
2024/03/01 12:33:34;;;;;;;16.38;9.68;;;;;;;;;;5018994;28;20116;-82
2024/03/01 12:36:15;;;;;;;17.70;11.45;;;;;;;;;;5011582;28;20411;-83
2024/03/01 12:38:45;;;;;;;20.38;12.60;;;;;;;;;;5009892;28;20065;-84
2024/03/01 12:41:32;;;;;;;17.17;11.95;;;;;;;;;;5017725;28;20045;-83
2024/03/01 12:44:18;;;;;;;20.13;10.85;;;;;;;;;;5027342;28;20086;-82
2024/03/01 12:46:57;;;;;;;21.85;11.95;;;;;;;;;;5011033;28;20046;-83
2024/03/01 12:49:31;;;;;;;22.85;11.20;;;;;;;;;;5019703;28;20108;-82
2024/03/01 12:51:59;;;;;;;15.48;10.02;;;;;;;;;;5020618;28;20049;-81
2024/03/01 12:54:35;;;;;;;17.23;10.23;;;;;;;;;;5014860;28;20112;-81
2024/03/01 12:57:14;;;;;;;21.75;13.00;;;;;;;;;;5016361;28;20580;-82
2024/03/01 12:59:51;;;;;;;23.23;12.20;;;;;;;;;;5015058;28;20058;-82
2024/03/01 13:02:29;;;;;;;16.88;11.75;;;;;;;;;;5014455;28;20104;-81
2024/03/01 13:05:07;;;;;;;17.13;11.00;;;;;;;;;;5016358;28;20050;-82
2024/03/01 13:07:36;;;;;;;20.52;11.73;;;;;;;;;;5015116;28;20107;-81
2024/03/01 13:10:04;;;;;;;17.70;10.65;;;;;;;;;;5015557;28;20050;-83
2024/03/01 13:12:34;;;;;;;18.98;12.32;;;;;;;;;;5017358;28;20050;-82
2024/03/01 13:15:08;;;;;;;17.30;11.90;;;;;;;;;;5016445;28;20075;-82
2024/03/01 13:17:42;;;;;;;15.80;9.93;;;;;;;;;;5016616;28;20050;-81
2024/03/01 13:20:27;;;;;;;21.60;12.38;;;;;;;;;;5015519;28;20092;-83
2024/03/01 13:23:14;;;;;;;16.23;10.63;;;;;;;;;;5005830;28;20050;-82
2024/03/01 13:25:47;;;;;;;22.65;11.50;;;;;;;;;;5022928;28;20050;-83
2024/03/01 13:28:17;;;;;;;16.48;10.68;;;;;;;;;;5014532;28;20064;-83
2024/03/01 13:30:46;;;;;;;21.20;11.50;;;;;;;;;;5006941;28;20133;-83
2024/03/01 13:33:23;;;;;;;19.50;11.60;;;;;;;;;;5014909;28;20046;-84
2024/03/01 13:35:54;;;;;;;19.23;11.15;;;;;;;;;;5024448;28;20757;-84
2024/03/01 13:38:23;;;;;;;16.65;11.43;;;;;;;;;;5014201;28;20049;-83
2024/03/01 13:40:56;;;;;;;22.55;11.80;;;;;;;;;;5014833;28;20057;-84
2024/03/01 13:43:24;;;;;;;19.08;11.25;;;;;;;;;;5015234;28;20511;-85
2024/03/01 13:45:58;;;;;;;17.88;10.68;;;;;;;;;;5017153;28;20050;-84
2024/03/01 13:48:28;;;;;;;28.02;12.63;;;;;;;;;;5016178;28;20050;-84
2024/03/01 13:50:55;;;;;;;22.90;12.10;;;;;;;;;;5016716;28;20058;-85
2024/03/01 13:53:25;;;;;;;20.77;12.38;;;;;;;;;;5019094;28;20046;-85
2024/03/01 13:55:53;;;;;;;22.60;12.30;;;;;;;;;;5021372;28;20046;-83
2024/03/01 13:58:21;;;;;;;19.73;12.13;;;;;;;;;;5022328;28;20502;-85
2024/03/01 14:00:49;;;;;;;18.50;11.10;;;;;;;;;;5024824;28;20487;-85
2024/03/01 14:03:17;;;;;;;22.45;10.40;;;;;;;;;;5024931;28;20461;-84
2024/03/01 14:05:46;;;;;;;34.25;10.70;;;;;;;;;;5021820;28;20050;-85
2024/03/01 14:08:21;;;;;;;17.35;9.88;;;;;;;;;;5019123;28;20073;-83
2024/03/01 14:10:50;;;;;;;15.18;9.15;;;;;;;;;;5010506;28;20050;-84
2024/03/01 14:13:22;;;;;;;22.25;10.45;;;;;;;;;;5017262;28;20075;-82
2024/03/01 14:15:55;;;;;;;15.35;9.23;;;;;;;;;;5018217;28;20048;-84
2024/03/01 14:18:22;;;;;;;19.30;9.50;;;;;;;;;;5017634;28;20410;-85
2024/03/01 14:20:51;;;;;;;15.30;10.27;;;;;;;;;;5018163;28;20137;-85
2024/03/01 14:23:19;;;;;;;16.10;9.57;;;;;;;;;;5018261;28;20046;-83
2024/03/01 14:25:46;;;;;;;22.48;9.48;;;;;;;;;;5018272;28;20060;-85
2024/03/01 14:28:14;;;;;;;24.58;12.13;;;;;;;;;;5019316;28;20042;-84
2024/03/01 14:30:42;;;;;;;17.05;9.88;;;;;;;;;;5017643;28;20046;-81
2024/03/01 14:33:15;;;;;;;18.50;10.98;;;;;;;;;;5019041;28;20053;-83
2024/03/01 14:35:44;;;;;;;14.63;8.27;;;;;;;;;;5010779;28;20050;-83